sensor_id;sensor_type;location;lat;lon;timestamp;P1;durP1;ratioP1;P2;durP2;ratioP2
2888;SDS011;1453;42.708;23.282;2022-09-01T00:01:56;31.40;;;23.17;;
2888;SDS011;1453;42.708;23.282;2022-09-01T00:04:23;30.47;;;24.73;;
2888;SDS011;1453;42.708;23.282;2022-09-01T00:06:51;35.87;;;29.00;;
2888;SDS011;1453;42.708;23.282;2022-09-01T00:09:24;29.37;;;23.87;;
2888;SDS011;1453;42.708;23.282;2022-09-01T00:11:51;64.00;;;45.33;;
2888;SDS011;1453;42.708;23.282;2022-09-01T00:14:21;58.73;;;43.67;;
2888;SDS011;1453;42.708;23.282;2022-09-01T00:16:52;36.13;;;28.03;;
2888;SDS011;1453;42.708;23.282;2022-09-01T00:19:18;27.50;;;22.83;;
2888;SDS011;1453;42.708;23.282;2022-09-01T00:21:46;29.10;;;24.50;;
2888;SDS011;1453;42.708;23.282;2022-09-01T00:24:13;33.10;;;27.20;;
2888;SDS011;1453;42.708;23.282;2022-09-01T00:26:41;36.20;;;28.27;;
2888;SDS011;1453;42.708;23.282;2022-09-01T00:29:08;31.80;;;26.10;;
2888;SDS011;1453;42.708;23.282;2022-09-01T00:31:34;29.90;;;23.70;;
2888;SDS011;1453;42.708;23.282;2022-09-01T00:34:00;27.47;;;23.53;;
2888;SDS011;1453;42.708;23.282;2022-09-01T00:36:28;28.13;;;22.43;;
2888;SDS011;1453;42.708;23.282;2022-09-01T00:38:55;28.37;;;22.80;;
2888;SDS011;1453;42.708;23.282;2022-09-01T00:41:23;32.83;;;22.40;;
2888;SDS011;1453;42.708;23.282;2022-09-01T00:43:53;30.40;;;21.73;;
2888;SDS011;1453;42.708;23.282;2022-09-01T00:46:34;29.33;;;21.87;;
2888;SDS011;1453;42.708;23.282;2022-09-01T00:49:13;26.33;;;21.47;;
2888;SDS011;1453;42.708;23.282;2022-09-01T00:51:46;36.43;;;23.77;;
2888;SDS011;1453;42.708;23.282;2022-09-01T00:54:21;31.20;;;22.10;;
2888;SDS011;1453;42.708;23.282;2022-09-01T00:56:51;27.97;;;24.93;;
2888;SDS011;1453;42.708;23.282;2022-09-01T00:59:19;24.90;;;22.03;;
2888;SDS011;1453;42.708;23.282;2022-09-01T01:01:48;30.37;;;23.67;;
2888;SDS011;1453;42.708;23.282;2022-09-01T01:04:15;27.80;;;21.63;;
2888;SDS011;1453;42.708;23.282;2022-09-01T01:06:47;27.77;;;23.90;;
2888;SDS011;1453;42.708;23.282;2022-09-01T01:09:24;38.57;;;31.97;;
2888;SDS011;1453;42.708;23.282;2022-09-01T01:11:53;31.97;;;24.70;;
2888;SDS011;1453;42.708;23.282;2022-09-01T01:14:25;53.27;;;41.17;;
2888;SDS011;1453;42.708;23.282;2022-09-01T01:16:57;40.17;;;28.03;;
2888;SDS011;1453;42.708;23.282;2022-09-01T01:22:23;34.70;;;27.50;;
2888;SDS011;1453;42.708;23.282;2022-09-01T01:28:13;31.03;;;23.67;;
2888;SDS011;1453;42.708;23.282;2022-09-01T01:30:47;30.17;;;23.90;;
2888;SDS011;1453;42.708;23.282;2022-09-01T01:33:17;29.47;;;23.67;;
2888;SDS011;1453;42.708;23.282;2022-09-01T01:35:49;31.97;;;23.53;;
2888;SDS011;1453;42.708;23.282;2022-09-01T01:38:18;27.50;;;21.80;;
2888;SDS011;1453;42.708;23.282;2022-09-01T01:40:46;24.13;;;21.53;;
2888;SDS011;1453;42.708;23.282;2022-09-01T01:43:13;30.33;;;21.33;;
2888;SDS011;1453;42.708;23.282;2022-09-01T01:45:44;26.43;;;20.93;;
2888;SDS011;1453;42.708;23.282;2022-09-01T01:48:16;33.20;;;24.20;;
2888;SDS011;1453;42.708;23.282;2022-09-01T01:50:48;33.60;;;22.70;;
2888;SDS011;1453;42.708;23.282;2022-09-01T01:53:15;40.40;;;30.23;;
2888;SDS011;1453;42.708;23.282;2022-09-01T01:55:43;27.90;;;22.17;;
2888;SDS011;1453;42.708;23.282;2022-09-01T01:58:13;32.30;;;25.03;;
2888;SDS011;1453;42.708;23.282;2022-09-01T02:00:41;30.23;;;23.27;;
2888;SDS011;1453;42.708;23.282;2022-09-01T02:03:11;30.93;;;23.73;;
2888;SDS011;1453;42.708;23.282;2022-09-01T02:05:45;39.00;;;26.20;;
2888;SDS011;1453;42.708;23.282;2022-09-01T02:08:15;30.13;;;24.10;;
2888;SDS011;1453;42.708;23.282;2022-09-01T02:10:47;33.80;;;26.77;;
2888;SDS011;1453;42.708;23.282;2022-09-01T02:13:17;33.47;;;25.77;;
2888;SDS011;1453;42.708;23.282;2022-09-01T02:15:55;33.27;;;24.90;;
2888;SDS011;1453;42.708;23.282;2022-09-01T02:18:37;31.87;;;24.13;;
2888;SDS011;1453;42.708;23.282;2022-09-01T02:21:07;30.63;;;24.53;;
2888;SDS011;1453;42.708;23.282;2022-09-01T02:23:38;31.87;;;24.43;;
2888;SDS011;1453;42.708;23.282;2022-09-01T02:26:05;34.20;;;25.23;;
2888;SDS011;1453;42.708;23.282;2022-09-01T02:28:35;35.40;;;26.23;;
2888;SDS011;1453;42.708;23.282;2022-09-01T02:31:06;36.63;;;24.97;;
2888;SDS011;1453;42.708;23.282;2022-09-01T02:33:35;36.17;;;25.43;;
2888;SDS011;1453;42.708;23.282;2022-09-01T02:36:06;34.03;;;24.87;;
2888;SDS011;1453;42.708;23.282;2022-09-01T02:38:38;30.67;;;25.20;;
2888;SDS011;1453;42.708;23.282;2022-09-01T02:41:07;36.37;;;26.00;;
2888;SDS011;1453;42.708;23.282;2022-09-01T02:43:33;31.63;;;24.53;;
2888;SDS011;1453;42.708;23.282;2022-09-01T02:46:00;29.00;;;23.90;;
2888;SDS011;1453;42.708;23.282;2022-09-01T02:48:30;36.53;;;25.60;;
2888;SDS011;1453;42.708;23.282;2022-09-01T02:51:03;34.30;;;25.10;;
2888;SDS011;1453;42.708;23.282;2022-09-01T02:53:41;34.77;;;23.77;;
2888;SDS011;1453;42.708;23.282;2022-09-01T02:56:10;32.73;;;25.10;;
2888;SDS011;1453;42.708;23.282;2022-09-01T02:58:38;34.87;;;26.00;;
2888;SDS011;1453;42.708;23.282;2022-09-01T03:01:16;35.93;;;26.37;;
2888;SDS011;1453;42.708;23.282;2022-09-01T03:03:51;36.87;;;25.30;;
2888;SDS011;1453;42.708;23.282;2022-09-01T03:06:22;34.20;;;24.93;;
2888;SDS011;1453;42.708;23.282;2022-09-01T03:08:53;32.77;;;24.80;;
2888;SDS011;1453;42.708;23.282;2022-09-01T03:11:26;36.07;;;26.60;;
2888;SDS011;1453;42.708;23.282;2022-09-01T03:13:54;34.03;;;25.00;;
2888;SDS011;1453;42.708;23.282;2022-09-01T03:16:21;35.97;;;27.33;;
2888;SDS011;1453;42.708;23.282;2022-09-01T03:18:47;36.10;;;26.67;;
2888;SDS011;1453;42.708;23.282;2022-09-01T03:21:14;39.60;;;29.10;;
2888;SDS011;1453;42.708;23.282;2022-09-01T03:23:41;40.70;;;29.20;;
2888;SDS011;1453;42.708;23.282;2022-09-01T03:26:09;57.03;;;28.60;;
2888;SDS011;1453;42.708;23.282;2022-09-01T03:28:35;41.70;;;27.97;;
2888;SDS011;1453;42.708;23.282;2022-09-01T03:31:02;37.97;;;27.23;;
2888;SDS011;1453;42.708;23.282;2022-09-01T03:33:30;35.70;;;27.40;;
2888;SDS011;1453;42.708;23.282;2022-09-01T03:35:56;42.40;;;29.00;;
2888;SDS011;1453;42.708;23.282;2022-09-01T03:38:24;37.50;;;27.97;;
2888;SDS011;1453;42.708;23.282;2022-09-01T03:40:56;36.73;;;27.80;;
2888;SDS011;1453;42.708;23.282;2022-09-01T03:43:26;41.70;;;28.30;;
2888;SDS011;1453;42.708;23.282;2022-09-01T03:45:54;39.70;;;28.20;;
2888;SDS011;1453;42.708;23.282;2022-09-01T03:48:25;43.27;;;27.30;;
2888;SDS011;1453;42.708;23.282;2022-09-01T03:50:56;40.97;;;29.63;;
2888;SDS011;1453;42.708;23.282;2022-09-01T03:53:27;41.77;;;29.00;;
2888;SDS011;1453;42.708;23.282;2022-09-01T03:55:56;46.10;;;30.53;;
2888;SDS011;1453;42.708;23.282;2022-09-01T03:58:23;50.23;;;30.97;;
2888;SDS011;1453;42.708;23.282;2022-09-01T04:00:51;55.77;;;32.40;;
2888;SDS011;1453;42.708;23.282;2022-09-01T04:03:25;47.63;;;30.77;;
2888;SDS011;1453;42.708;23.282;2022-09-01T04:05:56;55.73;;;34.60;;
2888;SDS011;1453;42.708;23.282;2022-09-01T04:08:23;48.10;;;33.87;;
2888;SDS011;1453;42.708;23.282;2022-09-01T04:10:53;54.57;;;32.23;;
2888;SDS011;1453;42.708;23.282;2022-09-01T04:13:29;49.27;;;31.63;;
2888;SDS011;1453;42.708;23.282;2022-09-01T04:15:59;66.40;;;33.97;;
2888;SDS011;1453;42.708;23.282;2022-09-01T04:18:25;60.87;;;34.93;;
2888;SDS011;1453;42.708;23.282;2022-09-01T04:20:52;68.00;;;35.67;;
2888;SDS011;1453;42.708;23.282;2022-09-01T04:23:29;53.30;;;36.50;;
2888;SDS011;1453;42.708;23.282;2022-09-01T04:28:36;94.27;;;35.37;;
2888;SDS011;1453;42.708;23.282;2022-09-01T04:31:13;81.30;;;34.83;;
2888;SDS011;1453;42.708;23.282;2022-09-01T04:33:43;59.50;;;35.53;;
2888;SDS011;1453;42.708;23.282;2022-09-01T04:36:17;60.93;;;37.93;;
2888;SDS011;1453;42.708;23.282;2022-09-01T04:38:52;71.77;;;37.73;;
2888;SDS011;1453;42.708;23.282;2022-09-01T04:41:27;116.17;;;36.83;;
2888;SDS011;1453;42.708;23.282;2022-09-01T04:43:57;61.83;;;36.07;;
2888;SDS011;1453;42.708;23.282;2022-09-01T04:46:28;61.90;;;33.50;;
2888;SDS011;1453;42.708;23.282;2022-09-01T04:49:00;52.10;;;30.70;;
2888;SDS011;1453;42.708;23.282;2022-09-01T04:51:33;297.93;;;42.80;;
2888;SDS011;1453;42.708;23.282;2022-09-01T04:54:03;56.33;;;30.40;;
2888;SDS011;1453;42.708;23.282;2022-09-01T04:56:33;70.50;;;31.70;;
2888;SDS011;1453;42.708;23.282;2022-09-01T04:58:59;76.03;;;31.70;;
2888;SDS011;1453;42.708;23.282;2022-09-01T05:01:33;58.50;;;29.20;;
2888;SDS011;1453;42.708;23.282;2022-09-01T05:04:30;57.53;;;29.00;;
2888;SDS011;1453;42.708;23.282;2022-09-01T05:06:58;43.60;;;30.67;;
2888;SDS011;1453;42.708;23.282;2022-09-01T05:09:26;46.70;;;27.20;;
2888;SDS011;1453;42.708;23.282;2022-09-01T05:11:55;60.10;;;27.37;;
2888;SDS011;1453;42.708;23.282;2022-09-01T05:14:22;45.03;;;27.53;;
2888;SDS011;1453;42.708;23.282;2022-09-01T05:16:49;34.80;;;27.13;;
2888;SDS011;1453;42.708;23.282;2022-09-01T05:19:21;36.03;;;27.70;;
2888;SDS011;1453;42.708;23.282;2022-09-01T05:21:49;33.77;;;26.73;;
2888;SDS011;1453;42.708;23.282;2022-09-01T05:24:17;36.63;;;27.83;;
2888;SDS011;1453;42.708;23.282;2022-09-01T05:26:45;36.67;;;27.57;;
2888;SDS011;1453;42.708;23.282;2022-09-01T05:29:14;37.43;;;28.00;;
2888;SDS011;1453;42.708;23.282;2022-09-01T05:31:42;32.77;;;27.27;;
2888;SDS011;1453;42.708;23.282;2022-09-01T05:34:10;36.07;;;28.30;;
2888;SDS011;1453;42.708;23.282;2022-09-01T05:36:40;31.07;;;24.53;;
2888;SDS011;1453;42.708;23.282;2022-09-01T05:39:09;30.77;;;26.17;;
2888;SDS011;1453;42.708;23.282;2022-09-01T05:41:36;39.07;;;28.73;;
2888;SDS011;1453;42.708;23.282;2022-09-01T05:44:04;35.20;;;27.67;;
2888;SDS011;1453;42.708;23.282;2022-09-01T05:46:33;37.33;;;28.30;;
2888;SDS011;1453;42.708;23.282;2022-09-01T05:49:01;43.10;;;31.40;;
2888;SDS011;1453;42.708;23.282;2022-09-01T05:51:31;41.10;;;31.07;;
2888;SDS011;1453;42.708;23.282;2022-09-01T05:53:59;40.93;;;30.00;;
2888;SDS011;1453;42.708;23.282;2022-09-01T05:56:26;40.93;;;30.60;;
2888;SDS011;1453;42.708;23.282;2022-09-01T05:58:55;44.20;;;30.87;;
2888;SDS011;1453;42.708;23.282;2022-09-01T06:01:24;41.10;;;30.60;;
2888;SDS011;1453;42.708;23.282;2022-09-01T06:03:52;44.90;;;32.30;;
2888;SDS011;1453;42.708;23.282;2022-09-01T06:06:29;43.03;;;32.27;;
2888;SDS011;1453;42.708;23.282;2022-09-01T06:09:03;41.37;;;30.43;;
2888;SDS011;1453;42.708;23.282;2022-09-01T06:11:31;40.03;;;30.00;;
2888;SDS011;1453;42.708;23.282;2022-09-01T06:13:58;46.10;;;29.77;;
2888;SDS011;1453;42.708;23.282;2022-09-01T06:16:25;44.57;;;31.03;;
2888;SDS011;1453;42.708;23.282;2022-09-01T06:18:52;41.33;;;30.83;;
2888;SDS011;1453;42.708;23.282;2022-09-01T06:21:21;40.23;;;31.83;;
2888;SDS011;1453;42.708;23.282;2022-09-01T06:23:48;38.57;;;28.97;;
2888;SDS011;1453;42.708;23.282;2022-09-01T06:26:25;35.50;;;28.93;;
2888;SDS011;1453;42.708;23.282;2022-09-01T06:28:55;36.00;;;28.53;;
2888;SDS011;1453;42.708;23.282;2022-09-01T06:31:25;32.53;;;27.77;;
2888;SDS011;1453;42.708;23.282;2022-09-01T06:33:57;31.80;;;26.87;;
2888;SDS011;1453;42.708;23.282;2022-09-01T06:36:26;37.13;;;29.27;;
2888;SDS011;1453;42.708;23.282;2022-09-01T06:38:53;31.87;;;28.47;;
2888;SDS011;1453;42.708;23.282;2022-09-01T06:41:20;33.93;;;27.53;;
2888;SDS011;1453;42.708;23.282;2022-09-01T06:43:49;34.43;;;27.00;;
2888;SDS011;1453;42.708;23.282;2022-09-01T06:46:19;32.70;;;28.90;;
2888;SDS011;1453;42.708;23.282;2022-09-01T06:48:48;37.93;;;29.97;;
2888;SDS011;1453;42.708;23.282;2022-09-01T06:51:17;32.73;;;28.57;;
2888;SDS011;1453;42.708;23.282;2022-09-01T06:53:50;31.47;;;27.70;;
2888;SDS011;1453;42.708;23.282;2022-09-01T06:56:24;33.57;;;28.80;;
2888;SDS011;1453;42.708;23.282;2022-09-01T06:58:56;38.50;;;30.07;;
2888;SDS011;1453;42.708;23.282;2022-09-01T07:01:24;39.73;;;30.70;;
2888;SDS011;1453;42.708;23.282;2022-09-01T07:03:51;37.53;;;29.80;;
2888;SDS011;1453;42.708;23.282;2022-09-01T07:06:21;35.80;;;29.30;;
2888;SDS011;1453;42.708;23.282;2022-09-01T07:08:51;33.67;;;28.77;;
2888;SDS011;1453;42.708;23.282;2022-09-01T07:11:41;37.37;;;30.60;;
2888;SDS011;1453;42.708;23.282;2022-09-01T07:14:07;39.63;;;30.10;;
2888;SDS011;1453;42.708;23.282;2022-09-01T07:16:34;42.50;;;29.60;;
2888;SDS011;1453;42.708;23.282;2022-09-01T07:19:05;32.90;;;28.03;;
2888;SDS011;1453;42.708;23.282;2022-09-01T07:21:40;40.43;;;29.60;;
2888;SDS011;1453;42.708;23.282;2022-09-01T07:24:10;35.10;;;28.77;;
2888;SDS011;1453;42.708;23.282;2022-09-01T07:26:39;37.33;;;31.17;;
2888;SDS011;1453;42.708;23.282;2022-09-01T07:29:08;35.43;;;28.43;;
2888;SDS011;1453;42.708;23.282;2022-09-01T07:31:36;37.33;;;27.60;;
2888;SDS011;1453;42.708;23.282;2022-09-01T07:34:07;32.67;;;28.33;;
2888;SDS011;1453;42.708;23.282;2022-09-01T07:36:37;34.47;;;29.37;;
2888;SDS011;1453;42.708;23.282;2022-09-01T07:39:04;33.40;;;29.80;;
2888;SDS011;1453;42.708;23.282;2022-09-01T07:41:32;34.77;;;28.80;;
2888;SDS011;1453;42.708;23.282;2022-09-01T07:43:59;37.00;;;31.10;;
2888;SDS011;1453;42.708;23.282;2022-09-01T07:46:27;30.57;;;27.10;;
2888;SDS011;1453;42.708;23.282;2022-09-01T07:48:59;33.63;;;28.50;;
2888;SDS011;1453;42.708;23.282;2022-09-01T07:51:26;33.37;;;29.00;;
2888;SDS011;1453;42.708;23.282;2022-09-01T07:53:54;31.47;;;28.13;;
2888;SDS011;1453;42.708;23.282;2022-09-01T07:56:21;33.90;;;28.87;;
2888;SDS011;1453;42.708;23.282;2022-09-01T07:58:49;30.60;;;27.30;;
2888;SDS011;1453;42.708;23.282;2022-09-01T08:01:17;30.60;;;27.57;;
2888;SDS011;1453;42.708;23.282;2022-09-01T08:03:47;33.40;;;29.80;;
2888;SDS011;1453;42.708;23.282;2022-09-01T08:06:17;31.27;;;27.20;;
2888;SDS011;1453;42.708;23.282;2022-09-01T08:08:47;30.83;;;27.40;;
2888;SDS011;1453;42.708;23.282;2022-09-01T08:11:17;30.07;;;26.87;;
2888;SDS011;1453;42.708;23.282;2022-09-01T08:13:54;29.70;;;26.80;;
2888;SDS011;1453;42.708;23.282;2022-09-01T08:16:23;25.67;;;23.17;;
2888;SDS011;1453;42.708;23.282;2022-09-01T08:18:54;28.00;;;24.47;;
2888;SDS011;1453;42.708;23.282;2022-09-01T08:21:20;28.43;;;25.80;;
2888;SDS011;1453;42.708;23.282;2022-09-01T08:23:48;28.17;;;25.50;;
2888;SDS011;1453;42.708;23.282;2022-09-01T08:26:16;29.27;;;26.20;;
2888;SDS011;1453;42.708;23.282;2022-09-01T08:28:46;28.27;;;25.40;;
2888;SDS011;1453;42.708;23.282;2022-09-01T08:31:14;31.00;;;26.17;;
2888;SDS011;1453;42.708;23.282;2022-09-01T08:33:43;29.03;;;24.77;;
2888;SDS011;1453;42.708;23.282;2022-09-01T08:36:12;25.53;;;22.93;;
2888;SDS011;1453;42.708;23.282;2022-09-01T08:38:41;26.13;;;22.33;;
2888;SDS011;1453;42.708;23.282;2022-09-01T08:41:26;23.73;;;21.63;;
2888;SDS011;1453;42.708;23.282;2022-09-01T08:47:24;23.60;;;21.20;;
2888;SDS011;1453;42.708;23.282;2022-09-01T08:49:52;22.80;;;20.70;;
2888;SDS011;1453;42.708;23.282;2022-09-01T08:52:35;21.37;;;19.13;;
2888;SDS011;1453;42.708;23.282;2022-09-01T08:57:44;22.93;;;19.20;;
2888;SDS011;1453;42.708;23.282;2022-09-01T09:00:13;22.13;;;19.57;;
2888;SDS011;1453;42.708;23.282;2022-09-01T09:15:08;24.73;;;22.23;;
2888;SDS011;1453;42.708;23.282;2022-09-01T09:18:15;18.40;;;16.03;;
2888;SDS011;1453;42.708;23.282;2022-09-01T09:20:47;20.33;;;18.20;;
2888;SDS011;1453;42.708;23.282;2022-09-01T09:23:24;20.23;;;18.40;;
2888;SDS011;1453;42.708;23.282;2022-09-01T09:25:58;21.03;;;19.07;;
2888;SDS011;1453;42.708;23.282;2022-09-01T09:28:24;19.53;;;17.53;;
2888;SDS011;1453;42.708;23.282;2022-09-01T09:30:49;18.60;;;16.90;;
2888;SDS011;1453;42.708;23.282;2022-09-01T09:33:31;19.33;;;17.00;;
2888;SDS011;1453;42.708;23.282;2022-09-01T09:36:18;20.40;;;15.23;;
2888;SDS011;1453;42.708;23.282;2022-09-01T09:39:01;16.97;;;15.40;;
2888;SDS011;1453;42.708;23.282;2022-09-01T09:41:41;17.83;;;15.73;;
2888;SDS011;1453;42.708;23.282;2022-09-01T09:44:28;16.87;;;15.17;;
2888;SDS011;1453;42.708;23.282;2022-09-01T09:46:57;17.53;;;15.83;;
2888;SDS011;1453;42.708;23.282;2022-09-01T09:49:27;15.40;;;14.00;;
2888;SDS011;1453;42.708;23.282;2022-09-01T09:51:57;18.87;;;17.10;;
2888;SDS011;1453;42.708;23.282;2022-09-01T09:57:50;18.80;;;13.80;;
2888;SDS011;1453;42.708;23.282;2022-09-01T10:00:32;16.43;;;14.77;;
2888;SDS011;1453;42.708;23.282;2022-09-01T10:03:00;18.07;;;15.10;;
2888;SDS011;1453;42.708;23.282;2022-09-01T10:05:38;17.53;;;15.70;;
2888;SDS011;1453;42.708;23.282;2022-09-01T10:08:12;16.17;;;14.57;;
2888;SDS011;1453;42.708;23.282;2022-09-01T10:11:26;20.03;;;14.07;;
2888;SDS011;1453;42.708;23.282;2022-09-01T10:14:07;19.07;;;14.33;;
2888;SDS011;1453;42.708;23.282;2022-09-01T10:16:46;16.13;;;14.50;;
2888;SDS011;1453;42.708;23.282;2022-09-01T10:19:22;16.53;;;14.93;;
2888;SDS011;1453;42.708;23.282;2022-09-01T10:21:49;15.63;;;14.03;;
2888;SDS011;1453;42.708;23.282;2022-09-01T10:24:27;14.23;;;12.93;;
2888;SDS011;1453;42.708;23.282;2022-09-01T10:26:56;17.43;;;14.90;;
2888;SDS011;1453;42.708;23.282;2022-09-01T10:31:59;16.37;;;14.40;;
2888;SDS011;1453;42.708;23.282;2022-09-01T10:34:32;19.63;;;16.80;;
2888;SDS011;1453;42.708;23.282;2022-09-01T10:37:02;15.13;;;13.63;;
2888;SDS011;1453;42.708;23.282;2022-09-01T10:39:30;16.80;;;14.97;;
2888;SDS011;1453;42.708;23.282;2022-09-01T10:41:56;14.83;;;13.53;;
2888;SDS011;1453;42.708;23.282;2022-09-01T10:44:35;15.53;;;13.60;;
2888;SDS011;1453;42.708;23.282;2022-09-01T10:50:22;16.20;;;14.43;;
2888;SDS011;1453;42.708;23.282;2022-09-01T10:53:02;15.83;;;13.20;;
2888;SDS011;1453;42.708;23.282;2022-09-01T10:55:35;16.13;;;14.03;;
2888;SDS011;1453;42.708;23.282;2022-09-01T10:58:18;14.90;;;13.50;;
2888;SDS011;1453;42.708;23.282;2022-09-01T11:01:14;21.77;;;19.53;;
2888;SDS011;1453;42.708;23.282;2022-09-01T11:03:50;16.20;;;13.93;;
2888;SDS011;1453;42.708;23.282;2022-09-01T11:14:49;15.77;;;14.17;;
2888;SDS011;1453;42.708;23.282;2022-09-01T11:17:31;14.37;;;12.97;;
2888;SDS011;1453;42.708;23.282;2022-09-01T11:20:03;14.90;;;13.40;;
2888;SDS011;1453;42.708;23.282;2022-09-01T11:25:56;16.90;;;14.70;;
2888;SDS011;1453;42.708;23.282;2022-09-01T11:30:59;13.63;;;11.90;;
2888;SDS011;1453;42.708;23.282;2022-09-01T11:36:43;14.67;;;13.27;;
2888;SDS011;1453;42.708;23.282;2022-09-01T11:41:52;15.93;;;14.60;;
2888;SDS011;1453;42.708;23.282;2022-09-01T11:45:02;15.77;;;14.20;;
2888;SDS011;1453;42.708;23.282;2022-09-01T11:47:41;17.90;;;16.10;;
2888;SDS011;1453;42.708;23.282;2022-09-01T11:50:21;23.00;;;20.60;;
2888;SDS011;1453;42.708;23.282;2022-09-01T11:58:05;21.37;;;15.00;;
2888;SDS011;1453;42.708;23.282;2022-09-01T12:00:53;15.97;;;14.67;;
2888;SDS011;1453;42.708;23.282;2022-09-01T12:03:22;17.97;;;16.33;;
2888;SDS011;1453;42.708;23.282;2022-09-01T12:05:53;18.50;;;14.87;;
2888;SDS011;1453;42.708;23.282;2022-09-01T12:08:28;16.50;;;14.87;;
2888;SDS011;1453;42.708;23.282;2022-09-01T12:13:39;15.90;;;14.50;;
2888;SDS011;1453;42.708;23.282;2022-09-01T12:16:06;16.47;;;15.00;;
2888;SDS011;1453;42.708;23.282;2022-09-01T12:18:42;17.00;;;15.43;;
2888;SDS011;1453;42.708;23.282;2022-09-01T12:21:17;15.27;;;14.07;;
2888;SDS011;1453;42.708;23.282;2022-09-01T12:23:53;14.70;;;13.30;;
2888;SDS011;1453;42.708;23.282;2022-09-01T12:26:45;16.13;;;14.53;;
2888;SDS011;1453;42.708;23.282;2022-09-01T12:29:13;15.60;;;14.30;;
2888;SDS011;1453;42.708;23.282;2022-09-01T12:31:41;15.97;;;14.40;;
2888;SDS011;1453;42.708;23.282;2022-09-01T12:39:39;16.17;;;14.50;;
2888;SDS011;1453;42.708;23.282;2022-09-01T12:45:34;16.77;;;15.27;;
2888;SDS011;1453;42.708;23.282;2022-09-01T12:52:48;17.70;;;15.10;;
2888;SDS011;1453;42.708;23.282;2022-09-01T12:55:30;17.50;;;15.07;;
2888;SDS011;1453;42.708;23.282;2022-09-01T12:58:00;17.10;;;15.60;;
2888;SDS011;1453;42.708;23.282;2022-09-01T13:00:34;17.17;;;15.57;;
2888;SDS011;1453;42.708;23.282;2022-09-01T13:03:29;16.03;;;14.60;;
2888;SDS011;1453;42.708;23.282;2022-09-01T13:05:59;16.73;;;15.23;;
2888;SDS011;1453;42.708;23.282;2022-09-01T13:08:29;18.13;;;16.30;;
2888;SDS011;1453;42.708;23.282;2022-09-01T13:11:04;18.73;;;16.87;;
2888;SDS011;1453;42.708;23.282;2022-09-01T13:13:39;19.67;;;15.37;;
2888;SDS011;1453;42.708;23.282;2022-09-01T13:16:06;17.17;;;15.67;;
2888;SDS011;1453;42.708;23.282;2022-09-01T13:18:38;19.57;;;16.20;;
2888;SDS011;1453;42.708;23.282;2022-09-01T13:21:07;17.50;;;15.80;;
2888;SDS011;1453;42.708;23.282;2022-09-01T13:23:33;19.30;;;17.40;;
2888;SDS011;1453;42.708;23.282;2022-09-01T13:25:59;18.27;;;16.47;;
2888;SDS011;1453;42.708;23.282;2022-09-01T13:28:25;17.00;;;15.50;;
2888;SDS011;1453;42.708;23.282;2022-09-01T13:30:53;17.97;;;16.27;;
2888;SDS011;1453;42.708;23.282;2022-09-01T13:33:25;18.40;;;16.70;;
2888;SDS011;1453;42.708;23.282;2022-09-01T13:35:52;17.27;;;15.67;;
2888;SDS011;1453;42.708;23.282;2022-09-01T13:38:19;17.20;;;15.60;;
2888;SDS011;1453;42.708;23.282;2022-09-01T13:40:46;16.17;;;14.40;;
2888;SDS011;1453;42.708;23.282;2022-09-01T13:43:14;17.67;;;15.87;;
2888;SDS011;1453;42.708;23.282;2022-09-01T13:45:46;16.07;;;14.53;;
2888;SDS011;1453;42.708;23.282;2022-09-01T13:48:13;17.70;;;15.80;;
2888;SDS011;1453;42.708;23.282;2022-09-01T13:50:40;17.20;;;15.53;;
2888;SDS011;1453;42.708;23.282;2022-09-01T13:53:06;19.73;;;15.57;;
2888;SDS011;1453;42.708;23.282;2022-09-01T13:55:34;17.50;;;15.83;;
2888;SDS011;1453;42.708;23.282;2022-09-01T13:58:03;16.40;;;14.90;;
2888;SDS011;1453;42.708;23.282;2022-09-01T14:00:31;15.57;;;14.00;;
2888;SDS011;1453;42.708;23.282;2022-09-01T14:03:02;14.90;;;13.43;;
2888;SDS011;1453;42.708;23.282;2022-09-01T14:05:39;15.57;;;14.07;;
2888;SDS011;1453;42.708;23.282;2022-09-01T14:08:08;16.97;;;15.20;;
2888;SDS011;1453;42.708;23.282;2022-09-01T14:10:41;17.80;;;16.00;;
2888;SDS011;1453;42.708;23.282;2022-09-01T14:13:16;19.07;;;15.50;;
2888;SDS011;1453;42.708;23.282;2022-09-01T14:15:45;16.10;;;14.57;;
2888;SDS011;1453;42.708;23.282;2022-09-01T14:18:12;19.57;;;17.73;;
2888;SDS011;1453;42.708;23.282;2022-09-01T14:20:41;15.83;;;14.03;;
2888;SDS011;1453;42.708;23.282;2022-09-01T14:23:10;18.43;;;12.57;;
2888;SDS011;1453;42.708;23.282;2022-09-01T14:25:41;16.67;;;13.63;;
2888;SDS011;1453;42.708;23.282;2022-09-01T14:28:13;14.60;;;12.60;;
2888;SDS011;1453;42.708;23.282;2022-09-01T14:30:40;13.83;;;12.63;;
2888;SDS011;1453;42.708;23.282;2022-09-01T14:33:07;14.73;;;13.13;;
2888;SDS011;1453;42.708;23.282;2022-09-01T14:35:36;16.30;;;14.33;;
2888;SDS011;1453;42.708;23.282;2022-09-01T14:38:04;16.40;;;14.70;;
2888;SDS011;1453;42.708;23.282;2022-09-01T14:40:32;17.70;;;14.83;;
2888;SDS011;1453;42.708;23.282;2022-09-01T14:43:06;19.33;;;16.50;;
2888;SDS011;1453;42.708;23.282;2022-09-01T14:45:36;16.30;;;14.77;;
2888;SDS011;1453;42.708;23.282;2022-09-01T14:48:03;17.63;;;15.80;;
2888;SDS011;1453;42.708;23.282;2022-09-01T14:50:30;17.27;;;15.43;;
2888;SDS011;1453;42.708;23.282;2022-09-01T14:52:57;15.83;;;14.17;;
2888;SDS011;1453;42.708;23.282;2022-09-01T14:55:25;17.33;;;15.67;;
2888;SDS011;1453;42.708;23.282;2022-09-01T14:57:53;17.40;;;15.80;;
2888;SDS011;1453;42.708;23.282;2022-09-01T15:00:21;20.30;;;16.37;;
2888;SDS011;1453;42.708;23.282;2022-09-01T15:02:51;15.60;;;14.13;;
2888;SDS011;1453;42.708;23.282;2022-09-01T15:05:20;17.93;;;16.10;;
2888;SDS011;1453;42.708;23.282;2022-09-01T15:07:46;22.97;;;15.90;;
2888;SDS011;1453;42.708;23.282;2022-09-01T15:10:13;18.60;;;16.10;;
2888;SDS011;1453;42.708;23.282;2022-09-01T15:12:44;16.70;;;15.10;;
2888;SDS011;1453;42.708;23.282;2022-09-01T15:15:10;21.73;;;16.30;;
2888;SDS011;1453;42.708;23.282;2022-09-01T15:17:36;18.07;;;16.13;;
2888;SDS011;1453;42.708;23.282;2022-09-01T15:20:02;21.63;;;16.10;;
2888;SDS011;1453;42.708;23.282;2022-09-01T15:22:48;18.33;;;15.20;;
2888;SDS011;1453;42.708;23.282;2022-09-01T15:25:14;17.33;;;15.63;;
2888;SDS011;1453;42.708;23.282;2022-09-01T15:27:41;15.63;;;13.57;;
2888;SDS011;1453;42.708;23.282;2022-09-01T15:30:08;15.97;;;12.73;;
2888;SDS011;1453;42.708;23.282;2022-09-01T15:32:42;15.20;;;13.47;;
2888;SDS011;1453;42.708;23.282;2022-09-01T15:35:11;15.20;;;13.70;;
2888;SDS011;1453;42.708;23.282;2022-09-01T15:37:40;15.70;;;14.10;;
2888;SDS011;1453;42.708;23.282;2022-09-01T15:40:07;14.23;;;12.77;;
2888;SDS011;1453;42.708;23.282;2022-09-01T15:42:34;16.93;;;13.60;;
2888;SDS011;1453;42.708;23.282;2022-09-01T15:45:02;14.30;;;12.90;;
2888;SDS011;1453;42.708;23.282;2022-09-01T15:47:31;20.10;;;12.80;;
2888;SDS011;1453;42.708;23.282;2022-09-01T15:49:57;20.20;;;14.60;;
2888;SDS011;1453;42.708;23.282;2022-09-01T15:52:23;15.33;;;12.60;;
2888;SDS011;1453;42.708;23.282;2022-09-01T15:54:51;16.50;;;13.43;;
2888;SDS011;1453;42.708;23.282;2022-09-01T15:57:17;19.87;;;12.57;;
2888;SDS011;1453;42.708;23.282;2022-09-01T15:59:43;14.50;;;11.80;;
2888;SDS011;1453;42.708;23.282;2022-09-01T16:02:09;13.10;;;10.47;;
2888;SDS011;1453;42.708;23.282;2022-09-01T16:04:36;14.60;;;11.60;;
2888;SDS011;1453;42.708;23.282;2022-09-01T16:07:02;11.90;;;10.23;;
2888;SDS011;1453;42.708;23.282;2022-09-01T16:09:30;13.87;;;12.30;;
2888;SDS011;1453;42.708;23.282;2022-09-01T16:11:57;13.37;;;12.00;;
2888;SDS011;1453;42.708;23.282;2022-09-01T16:14:23;13.57;;;11.80;;